createdAt,value
2022-11-29T00:00:09.866Z,0.95
2022-11-29T00:02:39.408Z,1.20
2022-11-29T00:05:08.688Z,0.92
2022-11-29T00:07:38.197Z,0.70
2022-11-29T00:10:09.235Z,0.89
2022-11-29T00:12:38.011Z,0.68
2022-11-29T00:15:07.189Z,0.72
2022-11-29T00:17:36.767Z,0.76
2022-11-29T00:20:05.656Z,0.73
2022-11-29T00:22:34.421Z,0.59
2022-11-29T00:25:02.206Z,0.47
2022-11-29T00:27:31.957Z,0.58
2022-11-29T00:29:59.771Z,0.45
2022-11-29T00:32:28.675Z,0.63
2022-11-29T00:34:59.473Z,0.50
2022-11-29T00:37:28.415Z,0.43
2022-11-29T00:39:57.228Z,0.51
2022-11-29T00:42:25.816Z,0.47
2022-11-29T00:44:53.626Z,0.40
2022-11-29T00:47:22.363Z,0.27
2022-11-29T00:49:50.149Z,0.49
2022-11-29T00:52:18.670Z,0.28
2022-11-29T00:54:48.282Z,0.14
2022-11-29T00:57:16.993Z,0.30
2022-11-29T00:59:45.666Z,0.41
2022-11-29T01:02:14.326Z,0.26
2022-11-29T01:04:43.536Z,0.57
2022-11-29T01:07:13.287Z,0.39
2022-11-29T01:09:41.143Z,0.32
2022-11-29T01:12:10.658Z,0.35
2022-11-29T01:14:39.433Z,0.47
2022-11-29T01:17:07.265Z,0.39
2022-11-29T01:19:37.355Z,0.41
2022-11-29T01:22:06.802Z,0.24
2022-11-29T01:24:34.534Z,0.05
2022-11-29T01:27:03.226Z,0.25
2022-11-29T01:29:32.652Z,0.36
2022-11-29T01:32:00.367Z,0.27
2022-11-29T01:34:28.130Z,0.19
2022-11-29T01:36:56.802Z,0.27
2022-11-29T01:39:24.616Z,0.48
2022-11-29T01:41:53.179Z,0.16
2022-11-29T01:44:22.534Z,0.36
2022-11-29T01:46:50.497Z,0.25
2022-11-29T01:49:38.676Z,0.26
2022-11-29T01:52:26.128Z,0.53
2022-11-29T01:55:02.935Z,0.26
2022-11-29T01:57:32.050Z,0.16
2022-11-29T02:00:11.203Z,0.16
2022-11-29T02:02:54.211Z,0.14
2022-11-29T02:05:24.272Z,0.42
2022-11-29T02:07:57.927Z,0.28
2022-11-29T02:11:10.088Z,0.24
2022-11-29T02:14:26.848Z,0.19
2022-11-29T02:17:30.294Z,0.36
2022-11-29T02:21:04.212Z,0.21
2022-11-29T02:24:11.677Z,0.30
2022-11-29T02:27:01.644Z,0.49
2022-11-29T02:30:03.562Z,0.36
2022-11-29T02:32:44.820Z,0.36
2022-11-29T02:35:52.036Z,0.34
2022-11-29T02:39:00.533Z,0.56
2022-11-29T02:41:30.995Z,0.62
2022-11-29T02:44:12.385Z,0.51
2022-11-29T02:47:09.469Z,0.58
2022-11-29T02:49:48.953Z,0.35
2022-11-29T02:52:51.028Z,0.44
2022-11-29T02:55:52.827Z,0.44
2022-11-29T02:59:06.439Z,0.45
2022-11-29T03:02:31.450Z,0.27
2022-11-29T03:05:29.871Z,0.11
2022-11-29T03:08:47.318Z,0.41
2022-11-29T03:11:38.614Z,0.38
2022-11-29T03:14:26.216Z,0.46
2022-11-29T03:17:17.845Z,0.43
2022-11-29T03:20:36.039Z,0.43
2022-11-29T03:23:28.893Z,0.58
2022-11-29T03:26:36.660Z,0.44
2022-11-29T03:29:28.190Z,0.33
2022-11-29T03:32:51.416Z,0.43
2022-11-29T03:36:31.323Z,0.35
2022-11-29T03:39:08.086Z,0.07
2022-11-29T03:41:57.306Z,0.30
2022-11-29T03:44:46.141Z,0.21
2022-11-29T03:47:24.639Z,0.27
2022-11-29T03:50:05.780Z,0.20
2022-11-29T03:52:55.276Z,0.30
2022-11-29T03:55:48.774Z,0.25
2022-11-29T03:58:54.105Z,0.37
2022-11-29T04:01:48.320Z,0.31
2022-11-29T04:05:27.356Z,0.31
2022-11-29T04:08:42.928Z,0.11
2022-11-29T04:11:55.024Z,0.08
2022-11-29T04:15:01.737Z,0.10
2022-11-29T04:18:24.500Z,0.19
2022-11-29T04:21:07.062Z,0.39
2022-11-29T04:24:26.569Z,0.37
2022-11-29T04:28:29.349Z,0.57
2022-11-29T04:31:31.693Z,0.65
2022-11-29T04:34:33.981Z,0.38
2022-11-29T04:38:17.413Z,0.61
2022-11-29T04:41:27.092Z,0.61
2022-11-29T04:44:40.901Z,0.38
2022-11-29T04:47:55.913Z,0.58
2022-11-29T04:51:08.507Z,0.44
2022-11-29T04:54:26.628Z,0.42
2022-11-29T04:57:19.007Z,0.27
2022-11-29T05:00:19.967Z,0.38
2022-11-29T05:03:02.787Z,0.29
2022-11-29T05:06:17.869Z,0.44
2022-11-29T05:09:25.662Z,0.55
2022-11-29T05:12:39.052Z,0.43
2022-11-29T05:15:41.470Z,0.29
2022-11-29T05:18:59.218Z,0.39
2022-11-29T05:22:19.682Z,0.29
2022-11-29T05:25:56.566Z,0.32
2022-11-29T05:29:03.990Z,0.30
2022-11-29T05:32:38.205Z,0.43
2022-11-29T05:35:43.970Z,0.61
2022-11-29T05:38:37.547Z,0.71
2022-11-29T05:41:42.568Z,0.71
2022-11-29T05:44:42.571Z,0.69
2022-11-29T05:47:31.194Z,0.69
2022-11-29T05:50:23.557Z,0.63
2022-11-29T05:53:34.529Z,0.87
2022-11-29T05:56:24.019Z,1.13
2022-11-29T05:59:18.478Z,0.57
2022-11-29T06:02:29.540Z,0.61
2022-11-29T06:05:06.994Z,0.83
2022-11-29T06:07:52.147Z,0.64
2022-11-29T06:10:34.724Z,0.74
2022-11-29T06:13:19.979Z,0.83
2022-11-29T06:16:14.521Z,0.71
2022-11-29T06:19:20.211Z,0.76
2022-11-29T06:22:41.942Z,0.93
2022-11-29T06:25:36.286Z,1.03
2022-11-29T06:28:49.165Z,0.92
2022-11-29T06:31:33.252Z,1.01
2022-11-29T06:34:17.919Z,1.05
2022-11-29T06:37:40.745Z,0.97
2022-11-29T06:40:16.620Z,0.81
2022-11-29T06:42:46.177Z,0.99
2022-11-29T06:45:16.594Z,1.15
2022-11-29T06:47:56.168Z,0.96
2022-11-29T06:51:15.838Z,0.78
2022-11-29T06:54:08.049Z,0.88
2022-11-29T06:56:56.299Z,1.06
2022-11-29T06:59:35.224Z,0.90
2022-11-29T07:02:46.627Z,0.90
2022-11-29T07:05:32.031Z,1.03
2022-11-29T07:08:16.142Z,1.23
2022-11-29T07:10:50.086Z,1.28
2022-11-29T07:13:20.891Z,1.20
2022-11-29T07:17:19.670Z,0.99
2022-11-29T07:20:09.002Z,1.35
2022-11-29T07:23:38.120Z,1.22
2022-11-29T07:26:43.753Z,1.40
2022-11-29T07:29:46.903Z,0.96
2022-11-29T07:32:38.572Z,1.23
2022-11-29T07:35:49.525Z,1.16
2022-11-29T07:38:57.995Z,1.32
2022-11-29T07:42:14.591Z,1.26
2022-11-29T07:45:01.957Z,1.56
2022-11-29T07:47:35.680Z,1.52
2022-11-29T07:50:06.619Z,1.37
2022-11-29T07:52:36.696Z,1.39
2022-11-29T07:55:07.285Z,1.27
2022-11-29T07:57:37.154Z,1.33
2022-11-29T08:00:08.658Z,1.45
2022-11-29T08:02:36.730Z,1.44
2022-11-29T08:05:07.359Z,1.42
2022-11-29T08:07:38.140Z,1.51
2022-11-29T08:10:13.827Z,1.50
2022-11-29T08:12:52.736Z,1.74
2022-11-29T08:15:25.323Z,1.67
2022-11-29T08:17:55.833Z,1.86
2022-11-29T08:20:25.460Z,1.62
2022-11-29T08:22:59.380Z,1.71
2022-11-29T08:25:29.385Z,1.72
2022-11-29T08:27:58.967Z,1.61
2022-11-29T08:30:28.612Z,1.82
2022-11-29T08:32:58.482Z,1.89
2022-11-29T08:35:28.019Z,1.88
2022-11-29T08:37:57.523Z,1.85
2022-11-29T08:40:27.037Z,1.74
2022-11-29T08:42:58.971Z,1.61
2022-11-29T08:45:28.583Z,1.81
2022-11-29T08:47:57.425Z,2.01
2022-11-29T08:50:27.192Z,1.80
2022-11-29T08:53:17.963Z,2.56
2022-11-29T08:55:46.859Z,2.50
2022-11-29T08:58:16.950Z,2.04
2022-11-29T09:00:47.243Z,2.14
2022-11-29T09:03:35.417Z,2.16
2022-11-29T09:06:15.494Z,2.17
2022-11-29T09:08:45.963Z,2.42
2022-11-29T09:11:21.128Z,2.00
2022-11-29T09:14:00.671Z,2.17
2022-11-29T09:16:38.282Z,2.08
2022-11-29T09:19:08.408Z,2.50
2022-11-29T09:21:37.914Z,2.27
2022-11-29T09:24:08.174Z,2.00
2022-11-29T09:26:40.820Z,2.06
2022-11-29T09:29:11.647Z,2.09
2022-11-29T09:31:39.520Z,2.28
2022-11-29T09:34:09.112Z,2.34
2022-11-29T09:36:38.606Z,1.86
2022-11-29T09:39:10.083Z,2.45
2022-11-29T09:42:17.877Z,2.10
2022-11-29T09:45:18.533Z,2.32
2022-11-29T09:48:32.689Z,2.18
2022-11-29T09:52:09.181Z,2.51
2022-11-29T09:54:49.944Z,2.39
2022-11-29T09:57:19.890Z,2.17
2022-11-29T09:59:53.122Z,2.31
2022-11-29T10:02:45.612Z,2.50
2022-11-29T10:05:46.668Z,2.53
2022-11-29T10:08:27.963Z,2.69
2022-11-29T10:11:23.506Z,2.55
2022-11-29T10:14:02.161Z,2.67
2022-11-29T10:17:01.315Z,2.52
2022-11-29T10:19:44.774Z,2.23
2022-11-29T10:22:56.364Z,2.68
2022-11-29T10:25:57.089Z,3.04
2022-11-29T10:28:36.526Z,3.03
2022-11-29T10:31:34.793Z,2.81
2022-11-29T10:34:24.819Z,3.15
2022-11-29T10:37:01.739Z,3.16
2022-11-29T10:39:54.437Z,3.30
2022-11-29T10:42:47.148Z,2.95
2022-11-29T10:45:50.902Z,3.22
2022-11-29T10:48:25.505Z,2.99
2022-11-29T10:50:55.444Z,2.97
2022-11-29T10:53:32.780Z,2.85
2022-11-29T10:56:29.687Z,2.61
2022-11-29T10:59:09.239Z,2.86
2022-11-29T11:01:43.419Z,2.81
2022-11-29T11:04:30.652Z,2.86
2022-11-29T11:07:05.011Z,2.75
2022-11-29T11:09:50.674Z,2.71
2022-11-29T11:12:29.754Z,2.37
2022-11-29T11:15:24.847Z,2.35
2022-11-29T11:18:24.159Z,2.86
2022-11-29T11:20:58.961Z,3.03
2022-11-29T11:23:42.767Z,2.86
2022-11-29T11:26:15.024Z,2.71
2022-11-29T11:29:00.744Z,2.91
2022-11-29T11:31:40.921Z,2.64
2022-11-29T11:34:35.891Z,2.66
2022-11-29T11:37:16.295Z,2.91
2022-11-29T11:39:50.820Z,3.00
2022-11-29T11:42:37.429Z,2.98
2022-11-29T11:45:13.129Z,2.75
2022-11-29T11:48:00.365Z,2.89
2022-11-29T11:50:58.406Z,2.70
2022-11-29T11:53:36.972Z,2.57
2022-11-29T11:56:12.875Z,2.22
2022-11-29T11:58:54.781Z,2.27
2022-11-29T12:01:37.498Z,2.09
2022-11-29T12:04:21.845Z,2.39
2022-11-29T12:07:06.259Z,2.19
2022-11-29T12:09:53.235Z,2.40
2022-11-29T12:12:39.246Z,2.42
2022-11-29T12:15:38.334Z,2.30
2022-11-29T12:18:16.681Z,2.37
2022-11-29T12:21:24.849Z,2.03
2022-11-29T12:24:21.189Z,2.67
2022-11-29T12:26:58.942Z,2.19
2022-11-29T12:29:33.447Z,2.33
2022-11-29T12:32:28.178Z,2.57
2022-11-29T12:35:32.220Z,2.49
2022-11-29T12:38:39.987Z,2.58
2022-11-29T12:41:56.930Z,2.67
2022-11-29T12:45:00.604Z,2.49
2022-11-29T12:48:01.523Z,2.54
2022-11-29T12:51:02.407Z,2.39
2022-11-29T12:54:16.260Z,2.46
2022-11-29T12:57:24.572Z,2.05
2022-11-29T12:59:57.115Z,2.55
2022-11-29T13:02:41.531Z,2.99
2022-11-29T13:05:42.698Z,2.69
2022-11-29T13:08:53.609Z,2.83
2022-11-29T13:11:40.699Z,2.85
2022-11-29T13:14:51.799Z,2.42
2022-11-29T13:18:15.182Z,2.50
2022-11-29T13:21:24.479Z,2.65
2022-11-29T13:24:23.640Z,2.08
2022-11-29T13:26:54.949Z,2.71
2022-11-29T13:29:25.370Z,2.81
2022-11-29T13:31:55.159Z,2.52
2022-11-29T13:34:39.702Z,2.37
2022-11-29T13:37:19.051Z,2.56
2022-11-29T13:40:09.973Z,2.36
2022-11-29T13:43:30.461Z,2.41
2022-11-29T13:46:42.181Z,2.21
2022-11-29T13:49:58.831Z,2.55
2022-11-29T13:53:18.983Z,2.17
2022-11-29T13:56:01.118Z,2.51
2022-11-29T13:58:35.792Z,2.31
2022-11-29T14:01:15.371Z,2.20
2022-11-29T14:04:03.023Z,2.03
2022-11-29T14:06:38.540Z,2.45
2022-11-29T14:10:03.903Z,2.28
2022-11-29T14:12:51.237Z,2.72
2022-11-29T14:15:26.825Z,2.26
2022-11-29T14:18:09.605Z,2.42
2022-11-29T14:20:45.920Z,2.45
2022-11-29T14:23:41.775Z,2.53
2022-11-29T14:26:11.150Z,2.13
2022-11-29T14:28:41.169Z,2.16
2022-11-29T14:31:11.378Z,1.94
2022-11-29T14:34:14.410Z,2.08
2022-11-29T14:37:37.368Z,2.05
2022-11-29T14:40:42.317Z,2.20
2022-11-29T14:43:37.434Z,2.36
2022-11-29T14:46:15.017Z,2.37
2022-11-29T14:48:56.779Z,2.41
2022-11-29T14:51:31.985Z,2.52
2022-11-29T14:54:21.790Z,2.33
2022-11-29T14:56:51.306Z,2.30
2022-11-29T14:59:47.953Z,2.26
2022-11-29T15:02:40.060Z,2.33
2022-11-29T15:05:44.704Z,2.11
2022-11-29T15:09:00.246Z,2.52
2022-11-29T15:12:08.267Z,2.44
2022-11-29T15:15:24.332Z,2.37
2022-11-29T15:18:36.472Z,2.19
2022-11-29T15:21:30.868Z,2.18
2022-11-29T15:24:13.199Z,2.17
2022-11-29T15:27:04.310Z,2.25
2022-11-29T15:29:33.997Z,2.28
2022-11-29T15:32:06.906Z,2.25
2022-11-29T15:34:47.091Z,2.10
2022-11-29T15:37:35.709Z,2.31
2022-11-29T15:40:22.528Z,2.55
2022-11-29T15:43:02.113Z,2.70
2022-11-29T15:45:39.536Z,2.39
2022-11-29T15:48:27.720Z,2.60
2022-11-29T15:51:15.729Z,2.74
2022-11-29T15:54:12.648Z,2.57
2022-11-29T15:56:59.972Z,2.76
2022-11-29T15:59:48.806Z,2.74
2022-11-29T16:02:27.997Z,2.71
2022-11-29T16:05:24.503Z,2.47
2022-11-29T16:08:00.812Z,2.71
2022-11-29T16:10:39.721Z,2.73
2022-11-29T16:13:37.083Z,2.71
2022-11-29T16:16:21.408Z,2.67
2022-11-29T16:18:51.762Z,2.76
2022-11-29T16:21:32.693Z,2.68
2022-11-29T16:24:18.609Z,3.11
2022-11-29T16:26:51.587Z,3.18
2022-11-29T16:29:33.549Z,2.89
2022-11-29T16:32:25.809Z,2.76
2022-11-29T16:35:05.356Z,2.98
2022-11-29T16:37:45.028Z,3.04
2022-11-29T16:40:34.951Z,2.90
2022-11-29T16:43:04.584Z,2.96
2022-11-29T16:45:38.831Z,2.96
2022-11-29T16:48:26.839Z,2.92
2022-11-29T16:51:25.935Z,2.98
2022-11-29T16:53:55.996Z,3.05
2022-11-29T16:56:28.868Z,2.98
2022-11-29T16:59:25.078Z,2.88
2022-11-29T17:01:52.719Z,2.78
2022-11-29T17:04:24.555Z,3.01
2022-11-29T17:06:57.120Z,3.10
2022-11-29T17:09:32.728Z,3.08
2022-11-29T17:12:04.456Z,3.05
2022-11-29T17:14:34.156Z,2.88
2022-11-29T17:17:04.434Z,2.76
2022-11-29T17:19:34.055Z,2.80
2022-11-29T17:22:04.850Z,2.99
2022-11-29T17:24:34.179Z,2.82
2022-11-29T17:27:04.408Z,3.16
2022-11-29T17:29:34.841Z,3.22
2022-11-29T17:32:04.830Z,3.14
2022-11-29T17:34:33.624Z,3.25
2022-11-29T17:37:03.329Z,2.97
2022-11-29T17:39:33.376Z,2.93
2022-11-29T17:42:01.259Z,2.96
2022-11-29T17:44:34.041Z,2.83
2022-11-29T17:47:03.613Z,3.02
2022-11-29T17:49:33.566Z,2.97
2022-11-29T17:52:03.827Z,2.82
2022-11-29T17:54:33.633Z,2.86
2022-11-29T17:57:06.332Z,2.90
2022-11-29T17:59:35.955Z,2.73
2022-11-29T18:02:05.629Z,2.85
2022-11-29T18:04:35.282Z,2.68
2022-11-29T18:07:03.020Z,2.52
2022-11-29T18:09:32.607Z,2.79
2022-11-29T18:12:02.599Z,2.53
2022-11-29T18:14:33.120Z,2.58
2022-11-29T18:17:02.975Z,2.66
2022-11-29T18:19:32.774Z,2.44
2022-11-29T18:22:03.000Z,2.47
2022-11-29T18:24:46.084Z,2.56
2022-11-29T18:27:15.751Z,2.56
2022-11-29T18:29:45.299Z,2.64
2022-11-29T18:32:14.864Z,2.65
2022-11-29T18:34:44.628Z,2.54
2022-11-29T18:37:23.378Z,2.51
2022-11-29T18:39:58.096Z,2.53
2022-11-29T18:42:27.689Z,2.44
2022-11-29T18:44:58.921Z,2.49
2022-11-29T18:47:30.743Z,2.54
2022-11-29T18:49:58.518Z,2.48
2022-11-29T18:52:28.091Z,2.33
2022-11-29T18:54:58.611Z,2.38
2022-11-29T18:57:26.449Z,2.55
2022-11-29T18:59:56.068Z,2.43
2022-11-29T19:02:25.725Z,2.38
2022-11-29T19:04:55.482Z,2.36
2022-11-29T19:07:26.276Z,2.35
2022-11-29T19:09:56.016Z,2.18
2022-11-29T19:12:26.907Z,2.47
2022-11-29T19:14:56.655Z,2.49
2022-11-29T19:17:26.382Z,2.39
2022-11-29T19:19:56.039Z,2.27
2022-11-29T19:22:25.685Z,2.32
2022-11-29T19:24:55.772Z,2.42
2022-11-29T19:27:26.298Z,2.42
2022-11-29T19:29:55.934Z,2.38
2022-11-29T19:32:25.499Z,2.33
2022-11-29T19:34:53.327Z,2.15
2022-11-29T19:37:22.862Z,2.24
2022-11-29T19:39:52.688Z,2.40
2022-11-29T19:42:22.308Z,2.34
2022-11-29T19:45:15.918Z,2.32
2022-11-29T19:47:41.604Z,2.31
2022-11-29T19:50:12.332Z,2.26
2022-11-29T19:52:41.904Z,2.47
2022-11-29T19:55:11.530Z,2.26
2022-11-29T19:57:41.107Z,2.30
2022-11-29T20:00:11.689Z,2.30
2022-11-29T20:02:41.290Z,2.52
2022-11-29T20:05:10.871Z,2.33
2022-11-29T20:07:41.477Z,2.20
2022-11-29T20:10:11.956Z,2.42
2022-11-29T20:12:41.581Z,2.45
2022-11-29T20:15:11.583Z,2.47
2022-11-29T20:17:42.585Z,2.37
2022-11-29T20:20:13.030Z,2.28
2022-11-29T20:22:42.719Z,2.07
2022-11-29T20:25:13.478Z,2.23
2022-11-29T20:27:43.083Z,2.30
2022-11-29T20:30:14.034Z,2.37
2022-11-29T20:32:45.490Z,2.54
2022-11-29T20:35:17.377Z,2.47
2022-11-29T20:38:34.588Z,2.52
2022-11-29T20:41:21.365Z,2.48
2022-11-29T20:44:02.844Z,2.55
2022-11-29T20:46:32.762Z,2.49
2022-11-29T20:49:06.661Z,2.42
2022-11-29T20:51:57.878Z,2.29
2022-11-29T20:54:27.408Z,2.27
2022-11-29T20:56:56.963Z,2.27
2022-11-29T20:59:27.442Z,2.37
2022-11-29T21:02:01.198Z,2.40
2022-11-29T21:04:30.790Z,2.39
2022-11-29T21:07:00.398Z,2.49
2022-11-29T21:09:29.886Z,2.35
2022-11-29T21:11:59.970Z,2.35
2022-11-29T21:14:30.069Z,2.50
2022-11-29T21:17:00.231Z,2.30
2022-11-29T21:19:30.329Z,2.46
2022-11-29T21:22:21.136Z,2.42
2022-11-29T21:25:30.367Z,2.44
2022-11-29T21:28:01.917Z,2.48
2022-11-29T21:30:31.830Z,2.50
2022-11-29T21:33:01.839Z,2.49
2022-11-29T21:35:31.434Z,2.63
2022-11-29T21:38:02.687Z,2.66
2022-11-29T21:40:32.229Z,2.58
2022-11-29T21:43:01.715Z,2.58
2022-11-29T21:45:31.226Z,2.57
2022-11-29T21:48:01.651Z,2.60
2022-11-29T21:50:31.168Z,2.59
2022-11-29T21:53:00.716Z,2.69
2022-11-29T21:55:32.236Z,2.66
2022-11-29T21:58:02.062Z,2.66
2022-11-29T22:00:37.172Z,2.62
2022-11-29T22:03:07.032Z,2.86
2022-11-29T22:05:36.613Z,2.93
2022-11-29T22:08:07.013Z,2.81
2022-11-29T22:10:36.465Z,2.76
2022-11-29T22:13:06.144Z,2.89
2022-11-29T22:15:35.646Z,2.96
2022-11-29T22:18:05.623Z,2.92
2022-11-29T22:20:35.166Z,2.61
2022-11-29T22:23:04.762Z,2.56
2022-11-29T22:25:34.332Z,2.61
2022-11-29T22:28:03.857Z,2.80
2022-11-29T22:30:33.387Z,2.75
2022-11-29T22:33:02.901Z,2.68
2022-11-29T22:35:32.374Z,2.68
2022-11-29T22:38:01.892Z,2.91
2022-11-29T22:40:31.373Z,2.72
2022-11-29T22:43:00.917Z,2.72
2022-11-29T22:45:30.423Z,2.78
2022-11-29T22:47:59.983Z,2.92
2022-11-29T22:50:29.485Z,2.80
2022-11-29T22:52:58.222Z,2.82
2022-11-29T22:55:26.935Z,2.93
2022-11-29T22:57:56.388Z,3.00
2022-11-29T23:00:26.315Z,2.92
2022-11-29T23:02:58.882Z,2.75
2022-11-29T23:05:32.305Z,3.08
2022-11-29T23:08:02.097Z,2.97
2022-11-29T23:10:31.544Z,3.06
2022-11-29T23:13:02.985Z,3.06
2022-11-29T23:15:32.520Z,3.19
2022-11-29T23:18:01.975Z,3.20
2022-11-29T23:20:31.458Z,3.22
2022-11-29T23:23:00.914Z,3.18
2022-11-29T23:25:30.395Z,3.10
2022-11-29T23:27:58.107Z,3.15
2022-11-29T23:30:26.673Z,3.23
2022-11-29T23:32:56.166Z,3.10
2022-11-29T23:35:25.856Z,3.32
2022-11-29T23:37:55.410Z,3.22
2022-11-29T23:40:24.987Z,3.10
2022-11-29T23:42:54.783Z,2.98
2022-11-29T23:45:24.245Z,3.27
2022-11-29T23:47:53.701Z,3.11
2022-11-29T23:50:24.876Z,3.05
2022-11-29T23:52:57.219Z,3.07
2022-11-29T23:55:29.026Z,3.16
2022-11-29T23:58:01.910Z,3.11
